ADDS METAR Data INFO
IDs: Format: Raw Decoded Include TAF

Data at: 0102 UTC 24 Jun 2018

PASH 231556Z AUTO 20013KT 10SM OVC048 09/06 A3006 RMK AO2 SLP179 T00890061
PASH 231456Z AUTO 20012KT 10SM OVC050 09/06 A3005 RMK AO2 SLP176 T00890061 52006
PASH 231356Z AUTO 20007KT 10SM SCT050 08/06 A3004 RMK AO2 SLP174 T00830061
PASH 231256Z AUTO 21008KT 10SM SCT055 08/06 A3004 RMK AO2 SLP172 T00830061